Time;durP1;ratioP1;P1;durP2;ratioP2;P2;SDS_P1;SDS_P2;PMS_P1;PMS_P2;Temp;Humidity;BMP_temperature;BMP_pressure;BME280_temperature;BME280_humidity;BME280_pressure;Samples;Min_cycle;Max_cycle;Signal;HPM_P1;HPM_P2
2022/12/07 00:01:20;;;;;;;12.17;6.60;;;4.20;75.10;;;;;;5042863;28;20462;-71
2022/12/07 00:03:46;;;;;;;10.77;6.20;;;4.10;83.20;;;;;;5048329;28;20427;-71
2022/12/07 00:06:14;;;;;;;9.27;5.73;;;4.00;79.30;;;;;;5051292;28;20503;-71
2022/12/07 00:08:40;;;;;;;10.53;6.27;;;3.90;89.80;;;;;;5047179;28;20474;-71
2022/12/07 00:11:10;;;;;;;12.00;6.77;;;3.90;86.40;;;;;;5049446;28;20518;-69
2022/12/07 00:13:37;;;;;;;12.50;7.20;;;3.80;82.30;;;;;;5049092;28;20298;-71
2022/12/07 00:16:03;;;;;;;11.00;6.57;;;3.80;90.30;;;;;;5051518;28;20419;-71
2022/12/07 00:18:29;;;;;;;8.77;5.73;;;3.70;90.60;;;;;;5051273;28;20443;-71
2022/12/07 00:21:03;;;;;;;9.30;6.00;;;3.60;81.90;;;;;;5050976;28;20463;-71
2022/12/07 00:23:28;;;;;;;11.37;7.03;;;3.60;83.80;;;;;;5051137;28;20640;-70
2022/12/07 00:25:54;;;;;;;13.87;7.00;;;3.60;83.80;;;;;;5049692;28;20424;-71
2022/12/07 00:28:19;;;;;;;10.40;6.07;;;3.60;85.30;;;;;;5047262;28;20185;-70
2022/12/07 00:30:45;;;;;;;11.90;6.27;;;;;;;;;;5050868;28;20220;-71
2022/12/07 00:33:11;;;;;;;10.37;6.30;;;3.70;81.30;;;;;;5049656;28;20169;-71
2022/12/07 00:35:36;;;;;;;10.40;6.63;;;3.70;88.20;;;;;;5048333;28;20513;-69
2022/12/07 00:38:02;;;;;;;10.70;6.00;;;3.80;85.70;;;;;;5050965;28;20673;-71
2022/12/07 00:40:27;;;;;;;9.03;5.90;;;3.70;77.50;;;;;;5048618;28;20363;-71
2022/12/07 00:42:53;;;;;;;12.30;7.07;;;3.70;85.60;;;;;;5050368;28;20201;-68
2022/12/07 00:45:18;;;;;;;12.30;7.10;;;3.80;89.80;;;;;;5045827;28;20185;-71
2022/12/07 00:47:44;;;;;;;12.87;7.93;;;3.80;91.50;;;;;;5051679;28;20259;-71
2022/12/07 00:50:10;;;;;;;16.80;8.93;;;4.30;91.80;;;;;;5045887;28;20221;-71
2022/12/07 00:52:35;;;;;;;13.90;7.70;;;4.10;92.70;;;;;;5050720;28;20181;-71
2022/12/07 00:55:00;;;;;;;14.10;8.50;;;4.10;92.30;;;;;;5045936;28;20182;-71
2022/12/07 00:57:26;;;;;;;15.17;8.40;;;4.20;90.30;;;;;;5048858;28;20518;-71
2022/12/07 00:59:55;;;;;;;8.57;6.43;;;4.10;81.40;;;;;;5048092;28;20224;-71
2022/12/07 01:02:21;;;;;;;12.57;7.60;;;4.10;82.80;;;;;;5045577;28;20200;-71
2022/12/07 01:04:46;;;;;;;11.30;7.63;;;4.10;88.00;;;;;;5051038;28;20790;-71
2022/12/07 01:07:12;;;;;;;12.70;7.83;;;4.00;85.00;;;;;;5050501;28;20442;-71
2022/12/07 01:09:37;;;;;;;12.17;6.93;;;4.10;88.60;;;;;;5048015;28;20189;-69
2022/12/07 01:12:03;;;;;;;11.70;7.10;;;4.10;90.70;;;;;;5045734;28;20732;-71
2022/12/07 01:14:29;;;;;;;12.50;8.60;;;4.20;91.80;;;;;;5047280;28;20480;-71
2022/12/07 01:16:54;;;;;;;16.33;7.97;;;4.20;94.10;;;;;;5047648;28;20264;-71
2022/12/07 01:19:20;;;;;;;14.70;8.10;;;4.40;91.10;;;;;;5053683;22;20699;-70
2022/12/07 01:21:45;;;;;;;15.90;9.30;;;4.40;92.40;;;;;;5026033;28;20202;-71
2022/12/07 01:24:11;;;;;;;18.77;9.53;;;4.40;92.00;;;;;;5029459;28;20188;-72
2022/12/07 01:26:37;;;;;;;21.07;10.57;;;4.40;92.40;;;;;;5030811;28;20288;-70
2022/12/07 01:29:03;;;;;;;31.27;16.07;;;4.30;90.20;;;;;;5028848;28;20174;-70
2022/12/07 01:31:29;;;;;;;25.50;15.73;;;4.30;91.20;;;;;;5008254;28;20441;-71
2022/12/07 01:33:57;;;;;;;23.53;13.03;;;4.40;93.90;;;;;;5015757;28;20189;-70
2022/12/07 01:36:25;;;;;;;14.90;8.80;;;4.40;91.80;;;;;;5000610;28;20444;-70
2022/12/07 01:38:56;;;;;;;14.80;9.00;;;4.20;87.30;;;;;;5003314;28;20666;-70
2022/12/07 01:41:23;;;;;;;12.57;7.77;;;4.20;90.00;;;;;;5029162;28;20452;-71
2022/12/07 01:44:12;;;;;;;16.60;8.77;;;4.20;92.70;;;;;;5028007;28;20524;-70
2022/12/07 01:46:38;;;;;;;15.30;9.20;;;4.30;92.20;;;;;;5005516;28;20521;-69
2022/12/07 01:49:07;;;;;;;22.33;9.30;;;4.40;91.30;;;;;;4989842;28;20430;-70
2022/12/07 01:51:34;;;;;;;14.97;9.17;;;4.40;93.20;;;;;;5016870;28;20425;-70
2022/12/07 01:54:00;;;;;;;16.70;9.20;;;4.40;94.60;;;;;;5010604;28;20434;-70
2022/12/07 01:56:27;;;;;;;15.70;8.73;;;4.40;92.40;;;;;;5002638;28;20441;-69
2022/12/07 01:58:56;;;;;;;15.30;9.37;;;4.20;83.20;;;;;;5027332;28;20416;-69
2022/12/07 02:01:22;;;;;;;14.77;9.13;;;;;;;;;;5017936;28;20537;-70
2022/12/07 02:03:49;;;;;;;16.90;9.47;;;4.10;83.30;;;;;;5016007;28;20465;-70
2022/12/07 02:06:18;;;;;;;15.97;9.37;;;4.00;90.00;;;;;;5018064;28;20424;-69
2022/12/07 02:08:44;;;;;;;16.43;9.90;;;4.00;91.20;;;;;;5011072;28;20418;-69
2022/12/07 02:11:10;;;;;;;17.70;9.90;;;4.00;90.30;;;;;;5013878;28;20468;-69
2022/12/07 02:13:39;;;;;;;16.07;10.27;;;4.00;91.50;;;;;;5026448;28;20420;-69
2022/12/07 02:16:27;;;;;;;15.80;9.07;;;4.00;95.30;;;;;;5020637;28;20605;-70
2022/12/07 02:18:57;;;;;;;28.70;12.53;;;4.10;95.20;;;;;;5013512;28;20875;-69
2022/12/07 02:21:28;;;;;;;21.10;10.57;;;4.10;96.50;;;;;;5016355;28;20987;-69
2022/12/07 02:23:57;;;;;;;18.20;9.10;;;4.20;96.30;;;;;;5028763;28;20930;-70
2022/12/07 02:26:34;;;;;;;18.60;10.17;;;4.20;97.00;;;;;;4998820;28;20465;-69
2022/12/07 02:29:23;;;;;;;17.30;9.87;;;4.30;95.90;;;;;;5019338;28;20408;-69
2022/12/07 02:32:13;;;;;;;15.77;9.70;;;4.30;97.10;;;;;;5011787;28;20459;-70
2022/12/07 02:34:53;;;;;;;18.00;8.90;;;4.30;97.00;;;;;;5004998;28;20456;-69
2022/12/07 02:37:55;;;;;;;14.20;8.40;;;4.30;93.90;;;;;;5020905;28;20405;-69
2022/12/07 02:40:27;;;;;;;12.30;7.63;;;4.20;92.40;;;;;;5012064;28;20460;-69
2022/12/07 02:43:19;;;;;;;20.23;9.57;;;4.20;92.30;;;;;;5004415;28;20786;-69
2022/12/07 02:45:46;;;;;;;13.70;8.03;;;4.10;91.30;;;;;;5015427;28;20491;-70
2022/12/07 02:48:15;;;;;;;13.17;8.20;;;4.00;92.20;;;;;;5019725;28;20425;-69
2022/12/07 02:50:47;;;;;;;13.63;8.17;;;4.10;91.70;;;;;;5024472;28;20432;-69
2022/12/07 02:53:33;;;;;;;13.60;8.30;;;4.30;93.90;;;;;;5015539;28;21148;-70
2022/12/07 02:56:25;;;;;;;13.40;7.47;;;4.10;95.40;;;;;;5007548;28;20416;-69
2022/12/07 02:58:51;;;;;;;14.10;7.73;;;4.10;86.60;;;;;;5015845;28;20459;-69
2022/12/07 03:01:30;;;;;;;12.53;7.80;;;4.00;89.40;;;;;;5013175;28;21053;-69
2022/12/07 03:04:24;;;;;;;11.80;7.77;;;3.90;92.70;;;;;;5018389;28;20248;-69
2022/12/07 03:07:21;;;;;;;12.90;8.30;;;3.90;95.30;;;;;;5023764;28;20436;-69
2022/12/07 03:10:01;;;;;;;15.70;8.70;;;4.00;95.70;;;;;;4950183;28;20441;-69
2022/12/07 03:12:45;;;;;;;16.33;9.80;;;4.00;96.90;;;;;;5010996;28;20494;-70
2022/12/07 03:15:35;;;;;;;15.73;8.90;;;4.10;96.90;;;;;;5015341;28;20420;-70
2022/12/07 03:18:03;;;;;;;12.87;8.50;;;4.20;95.00;;;;;;5018503;28;20865;-69
2022/12/07 03:20:31;;;;;;;18.73;9.13;;;4.10;95.70;;;;;;5023737;28;20543;-69
2022/12/07 03:22:57;;;;;;;17.57;8.23;;;4.20;97.00;;;;;;5019285;28;20465;-69
2022/12/07 03:25:23;;;;;;;12.83;8.10;;;4.20;97.00;;;;;;5007870;28;20431;-69
2022/12/07 03:28:02;;;;;;;15.50;8.40;;;4.20;97.00;;;;;;5007215;28;20428;-70
2022/12/07 03:30:55;;;;;;;13.87;8.23;;;4.20;91.30;;;;;;5027239;28;20793;-71
2022/12/07 03:33:27;;;;;;;12.57;7.67;;;4.10;93.80;;;;;;4978274;28;20508;-70
2022/12/07 03:36:01;;;;;;;14.17;8.93;;;4.10;93.40;;;;;;5017817;28;20966;-70
2022/12/07 03:38:36;;;;;;;16.93;8.50;;;4.10;92.60;;;;;;5026528;28;20412;-69
2022/12/07 03:41:18;;;;;;;12.47;8.03;;;4.10;91.40;;;;;;5006285;28;20790;-68
2022/12/07 03:43:44;;;;;;;15.47;8.80;;;4.00;92.00;;;;;;5005904;28;20429;-70
2022/12/07 03:46:44;;;;;;;12.20;7.90;;;4.00;92.30;;;;;;5009952;28;20580;-69
2022/12/07 03:49:25;;;;;;;12.70;7.40;;;3.90;91.70;;;;;;4990657;28;20457;-69
2022/12/07 03:52:21;;;;;;;15.00;8.53;;;4.00;94.50;;;;;;5019396;28;20414;-69
2022/12/07 03:55:05;;;;;;;16.43;9.00;;;4.00;93.40;;;;;;5010796;28;20465;-69
2022/12/07 03:57:33;;;;;;;13.50;8.30;;;4.00;93.90;;;;;;5009493;28;20960;-70
2022/12/07 04:00:00;;;;;;;13.20;8.60;;;4.00;91.40;;;;;;5018844;28;20459;-69
2022/12/07 04:02:28;;;;;;;13.20;8.67;;;4.00;92.50;;;;;;5015122;28;20484;-69
2022/12/07 04:04:54;;;;;;;14.23;8.60;;;4.00;94.20;;;;;;4994034;28;20430;-69
2022/12/07 04:07:19;;;;;;;16.23;9.80;;;4.00;91.00;;;;;;4999334;28;20429;-69
2022/12/07 04:09:45;;;;;;;17.00;9.00;;;3.90;90.50;;;;;;5017361;28;20471;-69
2022/12/07 04:12:11;;;;;;;14.10;8.73;;;4.00;93.80;;;;;;5020472;28;20244;-69
2022/12/07 04:14:36;;;;;;;13.97;8.60;;;3.90;94.70;;;;;;5029073;28;20189;-70
2022/12/07 04:17:02;;;;;;;13.80;8.80;;;4.00;93.40;;;;;;5022691;28;20648;-69
2022/12/07 04:19:33;;;;;;;14.43;7.73;;;4.00;93.40;;;;;;5016408;28;20218;-69
2022/12/07 04:22:00;;;;;;;18.13;8.73;;;4.00;94.20;;;;;;5019867;28;20569;-69
2022/12/07 04:24:26;;;;;;;13.90;8.70;;;4.10;94.50;;;;;;5002850;28;20437;-69
2022/12/07 04:26:52;;;;;;;15.37;9.07;;;4.10;93.50;;;;;;5004271;28;21080;-69
2022/12/07 04:29:18;;;;;;;15.03;8.73;;;4.10;91.30;;;;;;5029561;28;20508;-69
2022/12/07 04:31:44;;;;;;;14.63;9.23;;;4.10;92.40;;;;;;5024440;28;20183;-69
2022/12/07 04:34:11;;;;;;;14.03;8.20;;;4.10;94.00;;;;;;5016924;28;20953;-69
2022/12/07 04:36:36;;;;;;;16.67;8.87;;;4.10;92.40;;;;;;5023973;28;20186;-69
2022/12/07 04:39:03;;;;;;;15.07;8.10;;;4.10;90.40;;;;;;5022383;28;20431;-69
2022/12/07 04:41:29;;;;;;;12.63;8.30;;;4.10;91.00;;;;;;5025640;28;20280;-69
2022/12/07 04:43:56;;;;;;;12.73;8.07;;;4.10;91.20;;;;;;5010395;28;20488;-69
2022/12/07 04:46:22;;;;;;;14.60;8.10;;;4.20;91.60;;;;;;5021205;28;20188;-69
2022/12/07 04:48:47;;;;;;;13.43;7.97;;;4.20;85.60;;;;;;5012696;28;20665;-69
2022/12/07 04:51:18;;;;;;;13.83;8.33;;;4.20;88.70;;;;;;5029384;28;20408;-69
2022/12/07 04:53:43;;;;;;;15.23;9.57;;;4.20;89.50;;;;;;5010915;28;20186;-70
2022/12/07 04:56:09;;;;;;;13.60;8.57;;;4.10;88.30;;;;;;5005208;28;20432;-69
2022/12/07 04:58:34;;;;;;;12.57;7.70;;;4.10;90.20;;;;;;5026864;28;20174;-69
2022/12/07 05:01:00;;;;;;;11.67;8.27;;;4.20;86.30;;;;;;5009224;28;20202;-68
2022/12/07 05:03:25;;;;;;;14.90;8.83;;;4.10;85.80;;;;;;5015027;28;20244;-68
2022/12/07 05:05:51;;;;;;;14.20;8.40;;;4.10;84.70;;;;;;5020324;28;20544;-69
2022/12/07 05:08:16;;;;;;;17.50;11.17;;;4.10;84.40;;;;;;5024427;28;20181;-69
2022/12/07 05:10:42;;;;;;;16.70;10.30;;;4.20;90.20;;;;;;5018592;28;20252;-69
2022/12/07 05:13:07;;;;;;;19.00;8.93;;;4.20;92.60;;;;;;5022585;28;20244;-71
2022/12/07 05:15:33;;;;;;;16.67;8.60;;;4.30;90.00;;;;;;5004914;28;20196;-70
2022/12/07 05:17:58;;;;;;;13.53;8.70;;;4.30;91.20;;;;;;5017797;28;20572;-69
2022/12/07 05:20:24;;;;;;;13.57;8.83;;;4.40;89.40;;;;;;5010766;28;20213;-69
2022/12/07 05:22:50;;;;;;;14.90;8.83;;;4.40;90.80;;;;;;5021045;28;20192;-69
2022/12/07 05:25:15;;;;;;;14.73;9.27;;;4.40;90.20;;;;;;5017500;28;20236;-69
2022/12/07 05:27:41;;;;;;;13.83;9.13;;;4.40;87.20;;;;;;5020479;28;20231;-69
2022/12/07 05:30:07;;;;;;;15.63;9.13;;;4.40;84.40;;;;;;5014115;28;20229;-70
2022/12/07 05:32:33;;;;;;;13.23;8.47;;;4.40;89.50;;;;;;5013373;28;20175;-69
2022/12/07 05:34:58;;;;;;;12.20;8.13;;;4.50;90.30;;;;;;5018697;28;20435;-69
2022/12/07 05:37:24;;;;;;;19.40;9.93;;;4.50;87.80;;;;;;5018408;28;20174;-69
2022/12/07 05:39:49;;;;;;;15.57;9.40;;;4.40;78.20;;;;;;5015999;28;20205;-69
2022/12/07 05:42:16;;;;;;;16.37;10.73;;;4.40;81.10;;;;;;5014637;28;20252;-69
2022/12/07 05:44:44;;;;;;;16.90;10.80;;;4.40;81.10;;;;;;5003386;28;20320;-69
2022/12/07 05:47:10;;;;;;;16.20;10.20;;;4.40;81.40;;;;;;5002581;28;20453;-69
2022/12/07 05:49:36;;;;;;;14.17;9.80;;;4.40;79.20;;;;;;5012135;28;20943;-70
2022/12/07 05:52:02;;;;;;;14.50;9.53;;;4.40;85.60;;;;;;5021410;28;20431;-69
2022/12/07 05:54:28;;;;;;;17.43;10.00;;;4.40;84.10;;;;;;5018173;28;20258;-69
2022/12/07 05:56:54;;;;;;;13.37;9.20;;;4.40;82.70;;;;;;5005074;28;20464;-69
2022/12/07 05:59:22;;;;;;;22.30;10.20;;;4.50;81.20;;;;;;5012931;28;20225;-69
2022/12/07 06:02:05;;;;;;;17.70;11.20;;;4.50;84.40;;;;;;5020132;28;20309;-69
2022/12/07 06:04:35;;;;;;;18.60;11.77;;;4.50;77.20;;;;;;5014911;28;20418;-69
2022/12/07 06:07:01;;;;;;;22.73;13.73;;;4.50;77.40;;;;;;5012492;28;20734;-69
2022/12/07 06:09:28;;;;;;;24.20;13.20;;;4.50;72.90;;;;;;5021001;28;20862;-69
2022/12/07 06:14:39;;;;;;;14.73;9.40;;;4.50;78.30;;;;;;5012664;28;21457;-69
2022/12/07 06:17:05;;;;;;;16.60;9.60;;;4.50;67.80;;;;;;5016304;28;20528;-69
2022/12/07 06:19:30;;;;;;;20.27;11.33;;;4.50;63.90;;;;;;5021577;28;20711;-69
2022/12/07 06:21:56;;;;;;;22.30;10.40;;;4.50;71.80;;;;;;5018524;28;20467;-69
2022/12/07 06:24:22;;;;;;;14.83;9.50;;;4.50;66.00;;;;;;5020884;28;20167;-69
2022/12/07 06:26:48;;;;;;;15.03;9.80;;;4.60;63.90;;;;;;5013327;28;20459;-69
2022/12/07 06:29:14;;;;;;;15.60;9.67;;;4.70;64.00;;;;;;5026753;28;20911;-69
2022/12/07 06:31:41;;;;;;;16.63;10.57;;;4.70;68.20;;;;;;5016644;28;20229;-69
2022/12/07 06:34:10;;;;;;;16.97;10.57;;;4.80;64.40;;;;;;5010969;28;20449;-71
2022/12/07 06:36:36;;;;;;;18.10;10.30;;;4.80;60.20;;;;;;5014195;28;20417;-69
2022/12/07 06:39:02;;;;;;;18.80;11.00;;;4.80;52.00;;;;;;5009309;28;20459;-69
2022/12/07 06:41:28;;;;;;;14.40;10.53;;;4.70;55.30;;;;;;5010991;28;20385;-67
2022/12/07 06:43:53;;;;;;;16.07;10.40;;;4.80;55.10;;;;;;5012871;28;20780;-69
2022/12/07 06:46:19;;;;;;;15.87;9.70;;;4.80;54.60;;;;;;5015123;28;20269;-69
2022/12/07 06:48:45;;;;;;;18.03;9.93;;;4.80;53.80;;;;;;5012889;28;20192;-69
2022/12/07 06:51:10;;;;;;;16.43;10.50;;;4.80;50.70;;;;;;5017662;28;20448;-69
2022/12/07 06:53:36;;;;;;;16.10;9.87;;;4.80;49.70;;;;;;5015369;28;20183;-69
2022/12/07 06:56:04;;;;;;;15.77;9.73;;;4.70;50.50;;;;;;5003029;28;20182;-69
2022/12/07 06:58:30;;;;;;;18.47;11.07;;;4.80;48.60;;;;;;5017450;28;20440;-69
2022/12/07 07:00:55;;;;;;;21.57;10.97;;;4.80;47.50;;;;;;4994238;28;20519;-69
2022/12/07 07:03:21;;;;;;;18.67;11.47;;;4.80;48.70;;;;;;4996782;28;20629;-69
2022/12/07 07:05:46;;;;;;;17.97;10.83;;;4.80;50.80;;;;;;5003319;28;20661;-69
2022/12/07 07:08:12;;;;;;;16.93;10.77;;;4.80;48.60;;;;;;4990118;28;20190;-69
2022/12/07 07:10:38;;;;;;;19.40;11.20;;;4.90;44.00;;;;;;4998963;28;20329;-69
2022/12/07 07:13:04;;;;;;;16.07;10.67;;;4.90;43.50;;;;;;4987238;28;20658;-69
2022/12/07 07:15:31;;;;;;;21.73;11.30;;;4.90;45.90;;;;;;5015241;28;20183;-69
2022/12/07 07:17:57;;;;;;;18.03;10.23;;;4.80;43.90;;;;;;5025436;28;20423;-69
2022/12/07 07:20:22;;;;;;;18.77;11.33;;;4.90;42.10;;;;;;5013210;28;20457;-69
2022/12/07 07:22:48;;;;;;;17.20;11.23;;;4.90;44.80;;;;;;4992885;28;20242;-70
2022/12/07 07:25:14;;;;;;;20.10;11.70;;;4.90;43.70;;;;;;4989910;28;20202;-70
